Time;durP1;ratioP1;P1;durP2;ratioP2;P2;SDS_P1;SDS_P2;PMS_P1;PMS_P2;Temp;Humidity;BMP_temperature;BMP_pressure;BME280_temperature;BME280_humidity;BME280_pressure;Samples;Min_cycle;Max_cycle;Signal;HPM_P1;HPM_P2
2023/08/02 00:04:11;;;;;;;0.87;0.80;;;;;;;20.50;61.15;95919.56;10549206;28;20036;-29
2023/08/02 00:09:12;;;;;;;2.03;1.00;;;;;;;20.65;63.84;95914.16;10544492;28;20063;-29
2023/08/02 00:14:12;;;;;;;1.92;1.05;;;;;;;20.70;63.29;95892.00;10561941;28;20112;-28
2023/08/02 00:19:12;;;;;;;1.67;0.83;;;;;;;20.68;62.16;95892.91;10551816;28;20495;-29
2023/08/02 00:24:13;;;;;;;0.70;0.67;;;;;;;20.60;61.17;95888.00;10532979;28;20375;-29
2023/08/02 00:29:13;;;;;;;1.13;0.87;;;;;;;20.58;61.29;95882.13;10543726;28;20431;-29
2023/08/02 00:34:13;;;;;;;0.60;0.57;;;;;;;20.55;61.02;95869.44;10558622;28;20485;-29
2023/08/02 00:39:14;;;;;;;0.60;0.57;;;;;;;20.51;61.17;95855.13;10542433;28;20440;-29
2023/08/02 00:44:14;;;;;;;1.15;0.80;;;;;;;20.54;61.03;95854.25;10523633;28;20112;-29
2023/08/02 00:49:15;;;;;;;0.75;0.73;;;;;;;20.53;60.90;95861.00;10549611;28;20036;-30
2023/08/02 00:54:16;;;;;;;1.00;0.73;;;;;;;20.52;60.95;95861.88;10527840;28;20032;-29
2023/08/02 00:59:16;;;;;;;1.60;0.82;;;;;;;20.65;63.16;95858.19;10543788;28;20444;-29
2023/08/02 01:04:16;;;;;;;1.10;0.90;;;;;;;20.68;62.73;95855.59;10511048;28;20032;-29
2023/08/02 01:09:29;;;;;;;2.13;1.10;;;;;;;20.69;61.48;95842.00;10540647;28;20039;-29
2023/08/02 01:14:32;;;;;;;2.13;0.93;;;;;;;20.62;61.08;95840.47;10549500;28;20360;-29
2023/08/02 01:19:33;;;;;;;1.30;1.17;;;;;;;20.58;60.89;95831.25;10522043;28;20405;-29
2023/08/02 01:24:35;;;;;;;0.90;0.85;;;;;;;20.55;60.92;95830.47;10525338;28;20039;-29
2023/08/02 01:29:40;;;;;;;2.17;0.93;;;;;;;20.53;61.04;95811.84;10534372;28;20035;-28
2023/08/02 01:34:42;;;;;;;0.75;0.60;;;;;;;20.53;60.97;95812.69;10525346;28;20069;-28
2023/08/02 01:39:42;;;;;;;1.10;1.00;;;;;;;20.54;60.83;95800.84;10556437;28;20149;-29
2023/08/02 01:44:42;;;;;;;1.73;0.70;;;;;;;20.53;60.94;95792.34;10538671;28;20040;-29
2023/08/02 01:49:43;;;;;;;2.00;1.03;;;;;;;20.61;62.43;95787.94;10532980;28;20405;-29
2023/08/02 01:54:44;;;;;;;1.52;1.20;;;;;;;20.66;62.37;95798.84;10537278;28;20032;-30
2023/08/02 01:59:44;;;;;;;3.00;0.82;;;;;;;20.67;61.24;95780.19;10533839;28;20516;-28
2023/08/02 02:04:45;;;;;;;1.00;0.77;;;;;;;20.60;60.83;95768.47;10522707;28;20020;-29
2023/08/02 02:09:47;;;;;;;0.70;0.67;;;;;;;20.56;60.88;95751.59;10530549;28;20296;-29
2023/08/02 02:14:48;;;;;;;1.30;0.57;;;;;;;20.53;60.96;95751.69;10520854;28;20296;-29
2023/08/02 02:19:48;;;;;;;1.03;0.83;;;;;;;20.54;60.93;95732.19;10504896;28;20034;-29
2023/08/02 02:24:48;;;;;;;0.97;0.73;;;;;;;20.50;60.73;95728.88;10518338;28;20294;-29
2023/08/02 02:29:49;;;;;;;1.57;0.87;;;;;;;20.52;60.86;95724.56;10529057;28;20032;-29
2023/08/02 02:34:49;;;;;;;1.40;1.00;;;;;;;20.50;60.89;95716.16;10532784;28;20036;-29
2023/08/02 02:39:49;;;;;;;1.43;1.00;;;;;;;20.63;62.45;95717.53;10517854;28;20031;-30
2023/08/02 02:44:50;;;;;;;1.37;1.10;;;;;;;20.67;62.30;95719.13;10532873;28;20028;-29
2023/08/02 02:49:50;;;;;;;0.97;0.97;;;;;;;20.65;61.19;95718.31;10534295;28;20031;-29
2023/08/02 02:54:53;;;;;;;1.73;0.83;;;;;;;20.60;60.77;95721.84;10548763;28;20486;-29
2023/08/02 02:59:53;;;;;;;1.23;0.68;;;;;;;20.57;60.79;95720.19;10512308;28;20020;-29
2023/08/02 03:04:54;;;;;;;0.90;0.67;;;;;;;20.54;60.88;95727.91;10546180;28;20024;-30
2023/08/02 03:09:54;;;;;;;1.17;0.70;;;;;;;20.52;61.03;95722.03;10542449;28;20286;-28
2023/08/02 03:14:55;;;;;;;0.90;0.82;;;;;;;20.51;60.59;95712.75;10542203;28;20059;-29
2023/08/02 03:19:55;;;;;;;1.00;0.80;;;;;;;20.46;60.69;95691.66;10524970;28;20513;-29
2023/08/02 03:24:55;;;;;;;1.10;0.70;;;;;;;20.50;60.72;95710.22;10517900;28;20656;-29
2023/08/02 03:29:56;;;;;;;2.00;1.17;;;;;;;20.63;62.42;95707.34;10525460;28;20023;-29
2023/08/02 03:34:56;;;;;;;2.03;1.30;;;;;;;20.67;62.46;95700.47;10541508;28;20032;-29
2023/08/02 03:39:57;;;;;;;1.77;0.90;;;;;;;20.65;61.31;95684.44;10527279;28;20466;-29
2023/08/02 03:44:57;;;;;;;1.40;0.90;;;;;;;20.60;60.84;95676.91;10531006;28;20286;-29
2023/08/02 03:49:57;;;;;;;0.80;0.60;;;;;;;20.56;60.64;95670.22;10548802;28;20093;-29
2023/08/02 03:54:58;;;;;;;1.67;0.87;;;;;;;20.49;60.82;95653.47;10532716;28;20512;-28
2023/08/02 03:59:58;;;;;;;0.73;0.63;;;;;;;20.52;60.71;95639.81;10531269;28;20036;-31
2023/08/02 04:04:59;;;;;;;2.85;0.90;;;;;;;20.50;60.57;95636.50;10540831;28;20047;-30
2023/08/02 04:09:59;;;;;;;0.52;0.52;;;;;;;20.52;60.77;95632.19;10539456;28;20031;-29
2023/08/02 04:14:59;;;;;;;0.70;0.70;;;;;;;20.49;60.89;95633.13;10547084;28;20035;-29
2023/08/02 04:20:01;;;;;;;11.63;3.57;;;;;;;20.62;63.57;95619.22;10541067;28;20038;-29
2023/08/02 04:25:03;;;;;;;7.00;2.42;;;;;;;20.61;63.09;95612.47;10545945;28;20077;-29
2023/08/02 04:30:04;;;;;;;4.88;1.88;;;;;;;20.57;62.94;95603.22;10549986;28;20104;-28
2023/08/02 04:35:04;;;;;;;2.85;1.45;;;;;;;20.51;62.55;95590.69;10538404;28;20093;-29
2023/08/02 04:40:05;;;;;;;2.60;1.77;;;;;;;20.37;62.61;95570.75;10538830;28;20449;-29
2023/08/02 04:45:07;;;;;;;2.35;1.67;;;;;;;20.40;62.77;95584.22;10512270;28;20047;-29
2023/08/02 04:50:07;;;;;;;2.38;1.40;;;;;;;20.42;62.90;95589.25;10545373;28;20036;-29
2023/08/02 04:55:09;;;;;;;5.65;1.95;;;;;;;20.39;63.23;95578.28;10523218;28;20416;-28
2023/08/02 05:00:10;;;;;;;3.15;1.70;;;;;;;20.42;62.70;95571.47;10543738;28;20034;-29
2023/08/02 05:05:10;;;;;;;4.13;1.30;;;;;;;20.42;62.68;95568.94;10524186;28;20044;-29
2023/08/02 05:10:13;;;;;;;3.55;1.90;;;;;;;20.53;63.31;95560.97;10532192;28;20035;-29
2023/08/02 05:15:13;;;;;;;6.20;2.00;;;;;;;20.59;63.48;95568.44;10539341;28;20032;-28
2023/08/02 05:20:14;;;;;;;6.40;2.15;;;;;;;20.48;63.58;95551.78;10542025;28;20040;-29
2023/08/02 05:25:14;;;;;;;5.93;2.00;;;;;;;20.44;63.45;95575.63;10528015;28;20078;-29
2023/08/02 05:30:15;;;;;;;4.80;2.13;;;;;;;20.38;63.89;95582.56;10544620;28;20032;-29
2023/08/02 05:35:15;;;;;;;3.80;2.05;;;;;;;20.38;63.65;95572.41;10544113;28;20667;-29
2023/08/02 05:40:15;;;;;;;4.22;1.75;;;;;;;20.36;63.75;95572.44;10544887;28;20437;-29
2023/08/02 05:45:16;;;;;;;3.38;1.75;;;;;;;20.36;64.08;95569.06;10552725;28;20114;-29
2023/08/02 05:50:16;;;;;;;2.70;1.88;;;;;;;20.34;63.88;95550.50;10526997;28;20036;-29
2023/08/02 05:55:17;;;;;;;4.38;2.22;;;;;;;20.34;64.39;95546.22;10543497;28;20080;-29
2023/08/02 06:00:18;;;;;;;2.85;1.88;;;;;;;20.48;64.30;95537.34;10552479;28;20042;-29
2023/08/02 06:05:18;;;;;;;2.95;1.77;;;;;;;20.50;63.63;95543.25;10547829;28;20028;-29
2023/08/02 06:10:19;;;;;;;2.97;1.90;;;;;;;20.45;63.68;95534.91;10530122;28;20394;-29
2023/08/02 06:15:19;;;;;;;3.80;1.90;;;;;;;20.38;64.15;95513.94;10529377;28;20040;-29
2023/08/02 06:20:19;;;;;;;3.67;2.27;;;;;;;20.37;64.43;95499.56;10536226;28;20698;-29
2023/08/02 06:25:20;;;;;;;5.23;1.73;;;;;;;20.37;63.96;95484.31;10544181;28;20486;-29
2023/08/02 06:30:20;;;;;;;3.23;2.13;;;;;;;20.37;63.89;95479.22;10538842;28;20387;-29
2023/08/02 06:35:20;;;;;;;2.42;1.70;;;;;;;20.39;63.21;95479.13;10535092;28;20289;-29
2023/08/02 06:40:21;;;;;;;1.60;1.30;;;;;;;20.44;62.21;95441.72;10533069;28;20040;-28
2023/08/02 06:45:21;;;;;;;2.87;2.00;;;;;;;20.45;63.10;95445.94;10549088;28;20040;-29
2023/08/02 06:50:21;;;;;;;3.63;2.03;;;;;;;20.51;64.29;95448.31;10533762;28;20088;-29
2023/08/02 06:55:22;;;;;;;3.63;2.40;;;;;;;20.56;64.11;95451.53;10541134;28;20038;-29
2023/08/02 07:00:22;;;;;;;4.07;2.27;;;;;;;20.53;63.42;95441.47;10541977;28;20032;-28
2023/08/02 07:05:24;;;;;;;3.13;1.90;;;;;;;20.52;62.29;95439.81;10546556;28;20293;-29
2023/08/02 07:10:25;;;;;;;1.95;1.63;;;;;;;20.51;62.09;95447.47;10530081;28;20043;-29
2023/08/02 07:15:26;;;;;;;2.38;1.98;;;;;;;20.49;62.48;95428.88;10542734;28;20164;-29
2023/08/02 07:20:26;;;;;;;2.72;1.48;;;;;;;20.48;61.96;95430.56;10534774;28;20119;-29
2023/08/02 07:25:27;;;;;;;2.40;1.60;;;;;;;20.46;61.83;95416.28;10532783;28;20042;-29
2023/08/02 07:30:27;;;;;;;3.00;1.38;;;;;;;20.47;61.83;95406.03;10530432;28;20461;-29
2023/08/02 07:35:28;;;;;;;3.37;1.87;;;;;;;20.49;61.87;95417.00;10527262;28;20036;-29
2023/08/02 07:40:28;;;;;;;3.40;2.37;;;;;;;20.58;62.99;95414.22;10521669;28;20032;-29
2023/08/02 07:45:29;;;;;;;2.72;2.47;;;;;;;20.61;63.19;95393.75;10538671;28;20042;-29
2023/08/02 07:50:29;;;;;;;2.10;1.50;;;;;;;20.60;62.56;95384.47;10532659;28;20027;-29
2023/08/02 07:55:29;;;;;;;2.10;1.43;;;;;;;20.55;61.58;95383.75;10547987;28;20020;-29
2023/08/02 08:00:30;;;;;;;2.00;1.70;;;;;;;20.51;61.49;95356.78;10544508;28;20035;-29
2023/08/02 08:05:30;;;;;;;2.37;1.53;;;;;;;20.52;61.61;95363.53;10553646;28;20125;-29
2023/08/02 08:10:31;;;;;;;1.95;1.73;;;;;;;20.51;61.60;95354.22;10528421;28;20047;-29
2023/08/02 08:15:31;;;;;;;1.60;1.50;;;;;;;20.48;61.61;95361.94;10537394;28;20098;-29
2023/08/02 08:20:31;;;;;;;2.27;1.57;;;;;;;20.50;61.64;95352.56;10556989;28;20129;-29
2023/08/02 08:25:32;;;;;;;2.13;1.67;;;;;;;20.48;61.85;95356.84;10539258;28;20036;-31
2023/08/02 08:30:32;;;;;;;3.47;2.40;;;;;;;20.60;62.74;95353.97;10532211;28;20382;-29
2023/08/02 08:35:34;;;;;;;5.43;2.00;;;;;;;20.74;62.60;95354.38;10556163;28;20422;-30
2023/08/02 08:40:34;;;;;;;6.72;2.33;;;;;;;20.68;63.18;95344.41;10534577;28;20297;-30
2023/08/02 08:45:35;;;;;;;3.07;2.13;;;;;;;20.66;63.48;95335.97;10535114;28;20410;-28
2023/08/02 08:50:40;;;;;;;3.38;2.08;;;;;;;20.62;62.15;95339.47;10533304;28;20115;-29
2023/08/02 08:55:41;;;;;;;1.52;1.42;;;;;;;20.58;61.95;95337.94;10536713;28;20077;-28
2023/08/02 09:00:43;;;;;;;2.60;1.98;;;;;;;20.56;62.35;95339.66;10525454;28;20510;-29
2023/08/02 09:05:43;;;;;;;3.83;2.10;;;;;;;20.55;61.87;95335.44;10525485;28;20083;-29
2023/08/02 09:10:44;;;;;;;3.72;2.05;;;;;;;20.55;61.93;95342.28;10535830;28;20052;-29
2023/08/02 09:15:44;;;;;;;7.72;3.03;;;;;;;20.53;62.50;95316.88;10544144;28;20020;-29
2023/08/02 09:20:52;;;;;;;8.70;3.00;;;;;;;20.66;63.20;95308.00;10531549;28;20039;-29
2023/08/02 09:25:52;;;;;;;5.90;2.58;;;;;;;20.70;63.26;95314.66;10534338;28;20032;-29
2023/08/02 09:30:52;;;;;;;3.37;2.30;;;;;;;20.68;62.62;95315.56;10535002;28;20031;-29
2023/08/02 09:35:53;;;;;;;8.23;3.90;;;;;;;20.63;62.14;95319.97;10545799;28;20508;-29
2023/08/02 09:40:54;;;;;;;10.38;3.25;;;;;;;20.56;62.11;95290.53;10536160;28;20047;-29
2023/08/02 09:45:54;;;;;;;9.75;3.15;;;;;;;20.56;61.72;95288.00;10525397;28;20390;-29
2023/08/02 09:50:55;;;;;;;7.68;1.98;;;;;;;20.51;61.67;95257.63;10541551;28;20066;-30
2023/08/02 09:55:58;;;;;;;7.85;2.63;;;;;;;20.55;61.73;95279.50;10546520;28;20042;-29
2023/08/02 10:01:02;;;;;;;7.72;2.50;;;;;;;20.56;61.85;95282.91;10549154;28;20039;-29
2023/08/02 10:06:06;;;;;;;6.43;2.22;;;;;;;20.58;61.99;95279.44;10536157;28;20140;-29
2023/08/02 10:11:07;;;;;;;3.65;2.40;;;;;;;20.69;63.08;95274.84;10535049;28;20042;-29
2023/08/02 10:16:09;;;;;;;4.53;2.58;;;;;;;20.72;63.29;95284.91;10554840;28;20115;-29
2023/08/02 10:21:12;;;;;;;9.02;3.05;;;;;;;20.68;62.23;95278.28;10537189;28;20119;-30
2023/08/02 10:26:12;;;;;;;6.90;2.90;;;;;;;20.66;62.01;95259.69;10532678;28;20036;-29
2023/08/02 10:31:13;;;;;;;6.35;2.67;;;;;;;20.68;61.85;95257.94;10535570;28;20036;-29
2023/08/02 10:36:13;;;;;;;6.25;2.92;;;;;;;20.72;62.05;95243.41;10521841;28;20390;-29
2023/08/02 10:41:13;;;;;;;6.87;2.80;;;;;;;20.72;61.95;95241.69;10530147;28;20039;-29
2023/08/02 10:46:16;;;;;;;4.50;2.77;;;;;;;20.72;62.02;95223.88;10550611;28;20223;-29
2023/08/02 10:51:31;;;;;;;6.90;3.10;;;;;;;20.73;61.87;95210.28;10538373;28;20518;-29
2023/08/02 10:56:31;;;;;;;7.05;4.57;;;;;;;20.74;61.86;95224.69;10540090;28;20035;-29
2023/08/02 11:01:31;;;;;;;5.67;2.67;;;;;;;20.77;63.09;95198.28;10541527;28;20494;-29
2023/08/02 11:06:33;;;;;;;4.27;2.77;;;;;;;20.80;63.33;95218.56;10536655;28;20513;-31
2023/08/02 11:11:34;;;;;;;6.93;3.60;;;;;;;20.78;61.99;95203.34;10535527;28;20417;-29
2023/08/02 11:16:41;;;;;;;14.32;3.53;;;;;;;20.73;62.59;95212.81;10532642;28;20028;-29
2023/08/02 11:21:59;;;;;;;13.85;3.28;;;;;;;20.75;63.24;95198.34;10533222;28;20518;-29
2023/08/02 11:26:59;;;;;;;10.05;3.33;;;;;;;20.73;63.39;95199.28;10534147;28;20040;-29
2023/08/02 11:32:04;;;;;;;10.67;3.60;;;;;;;20.73;63.45;95200.09;10535308;28;20043;-29
2023/08/02 11:37:05;;;;;;;8.30;3.35;;;;;;;20.76;63.87;95189.00;10569480;28;20317;-29
2023/08/02 11:42:05;;;;;;;32.70;6.63;;;;;;;20.81;64.02;95182.06;10549895;28;20100;-29
2023/08/02 11:47:05;;;;;;;7.65;2.97;;;;;;;20.87;63.98;95170.00;10554208;28;20113;-29
2023/08/02 11:52:07;;;;;;;7.47;2.70;;;;;;;20.95;64.06;95182.44;10563194;28;20032;-28
2023/08/02 11:57:07;;;;;;;6.38;2.90;;;;;;;21.06;63.74;95170.19;10564381;28;20149;-29
2023/08/02 12:02:27;;;;;;;7.13;3.53;;;;;;;21.12;63.67;95168.25;10545577;28;20508;-29
2023/08/02 12:07:29;;;;;;;7.88;2.58;;;;;;;21.11;63.56;95153.88;10545789;28;20493;-29
2023/08/02 12:12:31;;;;;;;8.13;4.20;;;;;;;21.20;63.23;95130.66;10545587;28;20040;-29
2023/08/02 12:17:31;;;;;;;8.88;3.30;;;;;;;21.22;63.34;95136.50;10538854;28;20086;-29
2023/08/02 12:22:48;;;;;;;6.40;3.25;;;;;;;21.26;63.04;95115.16;10546368;28;20417;-29
2023/08/02 12:28:05;;;;;;;6.38;2.60;;;;;;;21.25;63.02;95112.66;10541532;28;20050;-29
2023/08/02 12:33:06;;;;;;;6.13;2.63;;;;;;;21.26;63.31;95110.06;10544840;28;20122;-29
2023/08/02 12:38:06;;;;;;;6.63;3.13;;;;;;;21.28;63.14;95108.31;10549711;28;20036;-29
2023/08/02 12:43:08;;;;;;;7.33;2.40;;;;;;;21.33;63.31;95103.88;10537978;28;20028;-30
2023/08/02 12:48:08;;;;;;;8.93;2.97;;;;;;;21.31;62.92;95095.44;10536707;28;20047;-29
2023/08/02 12:53:08;;;;;;;4.53;2.40;;;;;;;21.35;63.30;95084.28;10549170;28;20475;-30
2023/08/02 12:58:09;;;;;;;4.97;3.00;;;;;;;21.28;63.38;95095.56;10532754;28;20035;-30
2023/08/02 13:03:09;;;;;;;4.50;2.57;;;;;;;21.21;63.32;95086.50;10535284;28;20116;-30
2023/08/02 13:08:10;;;;;;;5.47;2.17;;;;;;;21.15;63.34;95086.72;10535993;28;20046;-29
2023/08/02 13:13:10;;;;;;;7.20;2.83;;;;;;;21.13;63.17;95075.75;10541990;28;20039;-29
2023/08/02 13:18:11;;;;;;;5.68;2.72;;;;;;;21.10;63.49;95045.34;10532475;28;20797;-29
2023/08/02 13:23:11;;;;;;;3.08;1.73;;;;;;;21.04;63.21;95050.66;10531017;28;20059;-29
2023/08/02 13:28:12;;;;;;;5.25;2.55;;;;;;;21.13;63.37;95036.78;10521451;28;20039;-29
2023/08/02 13:33:14;;;;;;;6.10;2.30;;;;;;;21.09;63.66;95023.34;10536124;28;20093;-29
2023/08/02 13:38:14;;;;;;;4.75;2.17;;;;;;;21.18;63.48;95045.91;10531952;28;20050;-29
2023/08/02 13:43:14;;;;;;;7.10;2.33;;;;;;;21.22;63.53;95041.53;10521325;28;20028;-29
2023/08/02 13:48:14;;;;;;;9.70;2.40;;;;;;;21.25;63.41;95046.50;10537037;28;20039;-29
2023/08/02 13:53:15;;;;;;;5.03;2.17;;;;;;;21.20;63.40;95023.75;10531162;28;20153;-29
2023/08/02 13:58:15;;;;;;;5.67;2.30;;;;;;;21.17;63.32;95006.06;10528770;28;20466;-29
2023/08/02 14:03:16;;;;;;;5.10;2.30;;;;;;;21.17;63.57;94995.03;10534420;28;20504;-29
2023/08/02 14:08:16;;;;;;;6.10;2.50;;;;;;;21.15;63.54;94995.09;10534012;28;20122;-29
2023/08/02 14:13:16;;;;;;;7.13;2.40;;;;;;;21.21;63.54;94989.78;10541804;28;20504;-29
2023/08/02 14:18:17;;;;;;;3.80;2.40;;;;;;;21.19;64.27;94965.28;10550220;28;20498;-30
2023/08/02 14:23:17;;;;;;;8.30;2.17;;;;;;;21.29;63.20;94972.50;10532889;28;20298;-30
2023/08/02 14:28:17;;;;;;;5.67;2.50;;;;;;;21.24;63.40;94963.38;10530301;28;20889;-29
2023/08/02 14:33:18;;;;;;;5.53;2.30;;;;;;;21.24;64.00;94974.38;10537396;28;20408;-29
2023/08/02 14:38:18;;;;;;;4.70;2.63;;;;;;;21.31;63.86;94965.63;10530116;28;20486;-29
2023/08/02 14:43:18;;;;;;;3.83;2.20;;;;;;;21.30;63.60;94975.91;10528683;28;20544;-29
2023/08/02 14:48:19;;;;;;;7.13;2.90;;;;;;;21.35;63.72;94961.25;10526260;28;20031;-29
2023/08/02 14:53:19;;;;;;;5.78;2.63;;;;;;;21.22;63.50;94945.63;10546555;28;20394;-28
2023/08/02 14:58:20;;;;;;;8.07;5.17;;;;;;;21.20;63.69;94951.66;10519069;28;20054;-29
2023/08/02 15:03:21;;;;;;;13.43;5.23;;;;;;;21.23;63.69;94943.91;10533749;28;20500;-28
2023/08/02 15:08:21;;;;;;;15.35;4.10;;;;;;;21.25;64.63;94935.34;10523268;28;20506;-29
2023/08/02 15:13:21;;;;;;;14.53;4.37;;;;;;;21.21;65.09;94933.78;10534742;28;20085;-29
2023/08/02 15:18:22;;;;;;;16.93;4.23;;;;;;;21.19;65.01;94938.13;10542688;28;20038;-29
2023/08/02 15:23:22;;;;;;;9.10;3.47;;;;;;;21.17;65.09;94928.88;10527842;28;20016;-29
2023/08/02 15:28:22;;;;;;;10.48;3.65;;;;;;;21.13;64.92;94948.53;10537128;28;20058;-29
2023/08/02 15:33:23;;;;;;;10.57;3.60;;;;;;;21.16;65.03;94924.69;10532964;28;20429;-29
2023/08/02 15:38:23;;;;;;;12.20;3.53;;;;;;;21.16;65.09;94924.69;10518571;28;20414;-29
2023/08/02 15:43:23;;;;;;;11.43;3.83;;;;;;;21.13;65.18;94920.53;10530272;28;20032;-29
2023/08/02 15:48:24;;;;;;;12.03;3.10;;;;;;;21.14;65.07;94934.09;10526841;28;20519;-29
2023/08/02 15:53:24;;;;;;;10.87;3.20;;;;;;;21.19;65.63;94929.63;10524584;28;20033;-29
2023/08/02 15:58:25;;;;;;;12.73;3.20;;;;;;;21.20;64.88;94924.50;10526135;28;20398;-29
2023/08/02 16:03:25;;;;;;;11.83;3.30;;;;;;;21.17;64.55;94937.34;10511364;28;20285;-29
2023/08/02 16:08:25;;;;;;;8.67;2.97;;;;;;;21.14;64.73;94917.09;10537036;28;20340;-29
2023/08/02 16:13:26;;;;;;;9.23;2.67;;;;;;;21.12;64.72;94928.22;10530865;28;20036;-29
2023/08/02 16:18:26;;;;;;;9.57;2.55;;;;;;;21.08;64.53;94942.81;10521998;28;20376;-29
2023/08/02 16:23:27;;;;;;;9.57;2.65;;;;;;;21.08;65.00;94950.44;10536736;28;20028;-29
2023/08/02 16:28:27;;;;;;;7.73;2.67;;;;;;;21.09;64.48;94947.00;10542005;28;20036;-29
2023/08/02 16:33:28;;;;;;;6.82;2.50;;;;;;;21.10;64.45;94940.19;10537679;28;20394;-29
2023/08/02 16:38:28;;;;;;;11.30;3.30;;;;;;;21.17;65.62;94922.09;10540778;28;20028;-29
2023/08/02 16:43:28;;;;;;;4.33;2.33;;;;;;;21.13;64.51;94918.00;10546744;28;20059;-29
2023/08/02 16:48:29;;;;;;;6.43;2.27;;;;;;;21.09;64.45;94929.19;10538136;28;20451;-29
2023/08/02 16:53:29;;;;;;;4.43;2.30;;;;;;;21.08;64.52;94940.25;10536595;28;20028;-29
2023/08/02 16:58:29;;;;;;;6.97;2.42;;;;;;;21.07;64.40;94935.22;10538975;28;20032;-29
2023/08/02 17:03:30;;;;;;;4.30;2.17;;;;;;;21.09;64.42;94969.06;10546361;28;20024;-30
2023/08/02 17:08:30;;;;;;;4.73;2.17;;;;;;;21.08;64.20;94991.16;10553570;28;20289;-29
2023/08/02 17:13:31;;;;;;;6.88;2.10;;;;;;;21.12;64.98;94992.69;10532017;28;20111;-30
2023/08/02 17:18:31;;;;;;;3.97;2.28;;;;;;;21.14;64.41;95016.34;10544319;28;20032;-29
2023/08/02 17:23:31;;;;;;;8.93;2.57;;;;;;;21.15;65.93;95112.16;10552395;28;20036;-29
2023/08/02 17:28:32;;;;;;;8.57;2.60;;;;;;;21.18;66.11;95095.97;10533480;28;20285;-29
2023/08/02 17:33:33;;;;;;;6.38;2.63;;;;;;;21.22;65.84;95159.41;10533467;28;20088;-29
2023/08/02 17:38:33;;;;;;;4.85;2.20;;;;;;;21.14;64.28;95160.59;10539199;28;20490;-29
2023/08/02 17:43:34;;;;;;;6.47;2.93;;;;;;;21.15;64.30;95147.78;10538765;28;20602;-29
2023/08/02 17:48:34;;;;;;;3.30;2.20;;;;;;;21.12;64.03;95142.81;10518450;28;20294;-29
2023/08/02 17:53:34;;;;;;;2.83;2.10;;;;;;;21.16;64.23;95144.38;10538608;28;20032;-29
2023/08/02 17:58:37;;;;;;;4.03;2.20;;;;;;;21.15;64.31;95132.53;10528154;28;20036;-29
2023/08/02 18:03:38;;;;;;;6.45;2.00;;;;;;;21.16;64.29;95154.56;10533895;28;20027;-30
2023/08/02 18:08:42;;;;;;;4.70;2.60;;;;;;;21.15;64.19;95202.97;10526471;28;20085;-31
2023/08/02 18:13:45;;;;;;;6.10;2.65;;;;;;;21.21;64.82;95223.94;10525161;28;20024;-29
2023/08/02 18:18:45;;;;;;;4.05;2.33;;;;;;;21.22;65.40;95223.03;10531665;28;20453;-28
2023/08/02 18:23:46;;;;;;;2.90;2.40;;;;;;;21.22;64.25;95266.31;10529321;28;20040;-29
2023/08/02 18:28:48;;;;;;;4.17;1.87;;;;;;;21.18;64.12;95208.78;10529139;28;20036;-29
2023/08/02 18:33:49;;;;;;;4.45;2.22;;;;;;;21.16;64.15;95241.09;10528380;28;20028;-29
2023/08/02 18:38:49;;;;;;;3.58;1.90;;;;;;;21.16;64.29;95238.56;10525860;28;20024;-29
2023/08/02 18:43:51;;;;;;;3.57;2.20;;;;;;;21.16;64.02;95250.44;10534484;28;20099;-29
2023/08/02 18:48:52;;;;;;;3.42;2.10;;;;;;;21.19;64.46;95242.69;10537215;28;20113;-29
2023/08/02 18:53:52;;;;;;;5.25;2.20;;;;;;;21.17;64.81;95268.22;10529073;28;20039;-29
2023/08/02 18:58:53;;;;;;;3.88;1.70;;;;;;;21.20;64.50;95268.09;10536737;28;20046;-29
2023/08/02 19:03:55;;;;;;;8.00;2.00;;;;;;;21.25;66.02;95276.41;10534185;28;20096;-29
2023/08/02 19:08:57;;;;;;;7.57;2.22;;;;;;;21.26;65.78;95285.72;10542569;28;20218;-29
2023/08/02 19:13:57;;;;;;;4.72;1.98;;;;;;;21.23;64.92;95279.88;10539348;28;20032;-29
2023/08/02 19:18:59;;;;;;;3.47;2.30;;;;;;;21.23;64.78;95249.34;10532248;28;20040;-29
2023/08/02 19:24:00;;;;;;;3.55;2.03;;;;;;;21.19;64.51;95256.25;10526310;28;20088;-30
2023/08/02 19:29:01;;;;;;;2.45;1.88;;;;;;;21.17;64.48;95252.94;10532644;28;20039;-29
2023/08/02 19:34:01;;;;;;;5.70;1.83;;;;;;;21.16;64.03;95261.47;10532579;28;20067;-29
2023/08/02 19:39:05;;;;;;;4.43;1.70;;;;;;;21.17;63.97;95257.19;10544642;28;20032;-30
2023/08/02 19:44:07;;;;;;;3.95;1.65;;;;;;;21.15;64.02;95280.13;10538973;28;20135;-29
2023/08/02 19:49:08;;;;;;;2.20;1.50;;;;;;;21.14;63.88;95282.75;10526038;28;20052;-28
2023/08/02 19:54:10;;;;;;;3.70;2.10;;;;;;;21.19;66.02;95280.84;10557827;28;20040;-29
2023/08/02 19:59:12;;;;;;;6.70;3.30;;;;;;;21.15;65.09;95264.84;10540187;28;20036;-29
2023/08/02 20:04:13;;;;;;;3.90;2.15;;;;;;;21.15;64.06;95275.03;10554771;28;20500;-29
2023/08/02 20:09:13;;;;;;;5.17;1.60;;;;;;;21.09;63.89;95284.59;10538115;28;20068;-29
2023/08/02 20:14:21;;;;;;;3.55;1.50;;;;;;;21.13;63.81;95297.16;10533808;28;20081;-29
2023/08/02 20:19:24;;;;;;;3.90;1.67;;;;;;;21.13;63.87;95302.25;10538094;28;20583;-29
2023/08/02 20:24:26;;;;;;;2.63;1.60;;;;;;;21.11;63.94;95329.47;10523609;28;20421;-29
2023/08/02 20:29:27;;;;;;;3.72;1.65;;;;;;;21.10;63.57;95326.97;10530577;28;20048;-29
2023/08/02 20:34:28;;;;;;;3.87;2.20;;;;;;;21.12;65.13;95328.59;10548907;28;20051;-29
2023/08/02 20:39:28;;;;;;;2.50;1.60;;;;;;;21.17;69.40;95334.38;10556661;28;20289;-29
2023/08/02 20:44:29;;;;;;;2.17;1.50;;;;;;;21.17;68.97;95342.00;10535228;28;20032;-29
2023/08/02 20:49:30;;;;;;;3.65;1.52;;;;;;;21.15;64.64;95353.94;10555389;28;20042;-29
2023/08/02 20:54:30;;;;;;;2.00;1.50;;;;;;;21.13;64.41;95368.44;10527800;28;20051;-29
2023/08/02 20:59:31;;;;;;;1.50;1.27;;;;;;;21.12;64.19;95389.66;10538180;28;20032;-30
2023/08/02 21:04:31;;;;;;;1.93;1.30;;;;;;;21.11;64.00;95405.81;10540020;28;20020;-29
2023/08/02 21:09:31;;;;;;;5.10;1.57;;;;;;;21.08;63.95;95380.47;10528316;28;20044;-29
2023/08/02 21:14:32;;;;;;;3.17;1.33;;;;;;;21.08;64.00;95403.38;10547107;28;20040;-28
2023/08/02 21:19:35;;;;;;;2.25;1.50;;;;;;;21.05;63.68;95405.19;10542099;28;20464;-29
2023/08/02 21:24:36;;;;;;;1.75;1.08;;;;;;;21.05;64.86;95406.00;10529957;28;20468;-29
2023/08/02 21:29:45;;;;;;;3.25;1.73;;;;;;;21.13;66.56;95429.50;10538059;28;20421;-29
2023/08/02 21:34:45;;;;;;;2.60;1.50;;;;;;;21.14;66.64;95461.72;10520559;28;20058;-29
2023/08/02 21:39:45;;;;;;;1.53;1.30;;;;;;;21.12;64.08;95443.13;10533978;28;20051;-31
2023/08/02 21:44:46;;;;;;;1.90;1.47;;;;;;;21.09;63.53;95463.59;10526113;28;20116;-29
2023/08/02 21:49:51;;;;;;;2.73;1.40;;;;;;;21.08;63.64;95461.91;10547237;28;20793;-29
2023/08/02 21:54:51;;;;;;;2.42;1.55;;;;;;;21.07;63.48;95465.31;10525185;28;20286;-29
2023/08/02 21:59:55;;;;;;;1.77;1.43;;;;;;;21.08;63.51;95482.28;10523582;28;20024;-29
2023/08/02 22:04:57;;;;;;;1.85;1.52;;;;;;;21.06;63.60;95494.19;10525108;28;20150;-29
2023/08/02 22:09:57;;;;;;;2.30;1.52;;;;;;;21.06;63.51;95506.91;10535503;28;20080;-29
2023/08/02 22:15:04;;;;;;;1.37;1.10;;;;;;;21.05;63.32;95487.44;10542966;28;20081;-28
2023/08/02 22:20:05;;;;;;;5.63;1.60;;;;;;;21.12;67.12;95509.28;10542788;28;20032;-29
2023/08/02 22:25:05;;;;;;;2.92;1.67;;;;;;;21.15;66.92;95503.28;10535040;28;20043;-29
2023/08/02 22:30:06;;;;;;;2.67;1.17;;;;;;;21.11;63.95;95522.06;10538328;28;20094;-29
2023/08/02 22:35:07;;;;;;;4.03;1.50;;;;;;;21.07;63.63;95523.84;10544927;28;20028;-30
2023/08/02 22:40:08;;;;;;;2.00;1.20;;;;;;;21.07;63.54;95549.28;10528461;28;20036;-29
2023/08/02 22:45:09;;;;;;;1.98;1.20;;;;;;;21.07;63.26;95548.47;10528862;28;20039;-29
2023/08/02 22:50:09;;;;;;;3.47;1.52;;;;;;;20.97;63.29;95540.25;10546903;28;20481;-28
2023/08/02 22:55:11;;;;;;;2.00;1.17;;;;;;;21.04;63.23;95541.75;10534069;28;20066;-29
2023/08/02 23:00:14;;;;;;;2.75;1.67;;;;;;;21.05;63.37;95545.16;10538014;28;20128;-30
2023/08/02 23:05:20;;;;;;;3.10;1.52;;;;;;;21.06;63.95;95549.34;10525295;28;20028;-29
2023/08/02 23:10:26;;;;;;;3.15;1.50;;;;;;;21.11;68.69;95558.53;10524009;28;20490;-29
2023/08/02 23:15:27;;;;;;;;;;;;;;;21.13;65.50;95551.69;10549368;28;20051;-30
2023/08/02 23:20:34;;;;;;;4.38;1.80;;;;;;;21.03;64.11;95545.19;10546924;28;20305;-29